createdAt,value
2022-11-19T00:01:23.110Z,4.80
2022-11-19T00:03:52.969Z,4.80
2022-11-19T00:06:22.731Z,4.80
2022-11-19T00:08:49.867Z,4.80
2022-11-19T00:11:42.002Z,4.80
2022-11-19T00:14:12.585Z,4.70
2022-11-19T00:16:39.872Z,4.70
2022-11-19T00:19:06.699Z,4.60
2022-11-19T00:21:33.522Z,4.60
2022-11-19T00:24:00.276Z,4.60
2022-11-19T00:26:27.903Z,4.60
2022-11-19T00:28:55.207Z,4.60
2022-11-19T00:31:22.277Z,4.60
2022-11-19T00:33:54.182Z,4.70
2022-11-19T00:36:22.480Z,4.70
2022-11-19T00:38:49.368Z,4.70
2022-11-19T00:41:16.159Z,4.60
2022-11-19T00:43:49.658Z,4.60
2022-11-19T00:46:16.763Z,4.60
2022-11-19T00:48:43.782Z,4.60
2022-11-19T00:51:10.880Z,4.60
2022-11-19T00:53:39.100Z,4.60
2022-11-19T00:56:10.108Z,4.60
2022-11-19T00:58:36.965Z,4.60
2022-11-19T01:01:04.705Z,4.60
2022-11-19T01:03:32.087Z,4.60
2022-11-19T01:05:59.480Z,4.60
2022-11-19T01:08:26.768Z,4.50
2022-11-19T01:10:53.635Z,4.50
2022-11-19T01:13:35.445Z,4.50
2022-11-19T01:16:05.803Z,4.50
2022-11-19T01:18:33.224Z,4.50
2022-11-19T01:21:00.190Z,4.50
2022-11-19T01:23:27.250Z,4.50
2022-11-19T01:25:54.176Z,4.50
2022-11-19T01:28:20.932Z,4.40
2022-11-19T01:30:47.722Z,4.50
2022-11-19T01:33:14.601Z,4.50
2022-11-19T01:35:41.680Z,4.40
2022-11-19T01:38:08.615Z,4.40
2022-11-19T01:40:43.094Z,4.40
2022-11-19T01:43:12.675Z,4.40
2022-11-19T01:45:48.987Z,4.40
2022-11-19T01:48:18.704Z,4.40
2022-11-19T01:50:50.183Z,4.40
2022-11-19T01:53:17.256Z,4.40
2022-11-19T01:55:45.270Z,4.40
2022-11-19T01:58:16.198Z,4.40
2022-11-19T02:00:43.095Z,4.40
2022-11-19T02:03:12.567Z,4.30
2022-11-19T02:05:41.810Z,4.30
2022-11-19T02:08:29.713Z,4.30
2022-11-19T02:11:23.694Z,4.30
2022-11-19T02:13:53.218Z,4.20
2022-11-19T02:16:32.406Z,4.20
2022-11-19T02:19:29.179Z,4.20
2022-11-19T02:22:10.547Z,4.20
2022-11-19T02:24:41.939Z,4.20
2022-11-19T02:27:40.777Z,4.10
2022-11-19T02:30:18.423Z,4.10
2022-11-19T02:32:49.264Z,4.10
2022-11-19T02:35:35.947Z,4.00
2022-11-19T02:38:08.813Z,4.00
2022-11-19T02:40:53.446Z,4.00
2022-11-19T02:43:29.372Z,3.90
2022-11-19T02:46:01.899Z,3.90
2022-11-19T02:48:42.187Z,3.80
2022-11-19T02:51:10.098Z,3.80
2022-11-19T02:53:36.915Z,3.80
2022-11-19T02:56:17.759Z,3.80
2022-11-19T02:59:11.558Z,3.80
2022-11-19T03:02:01.373Z,3.80
2022-11-19T03:04:29.913Z,3.70
2022-11-19T03:07:13.483Z,3.70
2022-11-19T03:09:44.829Z,3.70
2022-11-19T03:12:38.866Z,3.70
2022-11-19T03:15:46.199Z,3.70
2022-11-19T03:18:43.025Z,3.60
2022-11-19T03:21:24.674Z,3.60
2022-11-19T03:23:55.016Z,3.60
2022-11-19T03:26:35.438Z,3.50
2022-11-19T03:29:10.305Z,3.50
2022-11-19T03:31:41.027Z,3.50
2022-11-19T03:34:16.805Z,3.50
2022-11-19T03:36:46.306Z,3.50
2022-11-19T03:39:19.476Z,3.50
2022-11-19T03:41:49.228Z,3.50
2022-11-19T03:44:26.855Z,3.40
2022-11-19T03:47:00.725Z,3.40
2022-11-19T03:49:33.573Z,3.40
2022-11-19T03:52:22.696Z,3.40
2022-11-19T03:54:49.662Z,3.30
2022-11-19T03:57:20.171Z,3.30
2022-11-19T03:59:47.740Z,3.30
2022-11-19T04:02:15.350Z,3.20
2022-11-19T04:04:43.044Z,3.30
2022-11-19T04:07:15.691Z,3.20
2022-11-19T04:09:45.874Z,3.10
2022-11-19T04:12:24.248Z,3.10
2022-11-19T04:14:51.632Z,3.10
2022-11-19T04:19:46.173Z,3.00
2022-11-19T04:22:13.060Z,3.00
2022-11-19T04:24:39.874Z,3.00
2022-11-19T04:27:06.737Z,3.00
2022-11-19T04:29:33.727Z,2.90
2022-11-19T04:32:00.457Z,2.90
2022-11-19T04:34:27.225Z,2.90
2022-11-19T04:36:54.027Z,2.90
2022-11-19T04:39:21.150Z,2.90
2022-11-19T04:41:48.233Z,2.90
2022-11-19T04:44:15.249Z,2.90
2022-11-19T04:46:42.164Z,3.00
2022-11-19T04:49:08.974Z,2.90
2022-11-19T04:51:35.781Z,2.90
2022-11-19T04:54:02.587Z,2.90
2022-11-19T04:56:29.404Z,2.90
2022-11-19T04:58:56.312Z,2.90
2022-11-19T05:01:23.276Z,2.90
2022-11-19T05:03:51.417Z,2.90
2022-11-19T05:06:18.355Z,2.90
2022-11-19T05:08:45.143Z,2.90
2022-11-19T05:11:11.979Z,2.80
2022-11-19T05:13:38.989Z,2.80
2022-11-19T05:16:06.139Z,2.80
2022-11-19T05:18:33.093Z,2.70
2022-11-19T05:21:00.135Z,2.70
2022-11-19T05:23:27.104Z,2.70
2022-11-19T05:25:53.908Z,2.70
2022-11-19T05:28:32.690Z,2.60
2022-11-19T05:31:04.714Z,2.60
2022-11-19T05:33:34.191Z,2.60
2022-11-19T05:36:01.940Z,2.50
2022-11-19T05:38:29.939Z,2.50
2022-11-19T05:40:56.977Z,2.50
2022-11-19T05:43:25.679Z,2.50
2022-11-19T05:45:52.621Z,2.50
2022-11-19T05:48:19.338Z,2.50
2022-11-19T05:50:46.100Z,2.50
2022-11-19T05:53:12.963Z,2.50
2022-11-19T05:55:40.206Z,2.50
2022-11-19T05:58:06.958Z,2.50
2022-11-19T06:00:33.789Z,2.50
2022-11-19T06:03:00.776Z,2.40
2022-11-19T06:05:27.661Z,2.40
2022-11-19T06:07:54.781Z,2.40
2022-11-19T06:10:21.553Z,2.40
2022-11-19T06:12:48.408Z,2.30
2022-11-19T06:15:15.306Z,2.40
2022-11-19T06:17:42.383Z,2.30
2022-11-19T06:20:11.110Z,2.30
2022-11-19T06:22:38.429Z,2.30
2022-11-19T06:25:06.130Z,2.30
2022-11-19T06:27:32.941Z,2.20
2022-11-19T06:29:59.775Z,2.30
2022-11-19T06:32:27.013Z,2.20
2022-11-19T06:34:53.831Z,2.20
2022-11-19T06:37:20.554Z,2.20
2022-11-19T06:39:47.331Z,2.10
2022-11-19T06:42:32.332Z,2.10
2022-11-19T06:44:59.376Z,2.10
2022-11-19T06:47:26.283Z,2.00
2022-11-19T06:49:53.071Z,1.90
2022-11-19T06:52:19.844Z,1.80
2022-11-19T06:54:46.594Z,1.80
2022-11-19T06:57:13.420Z,1.80
2022-11-19T06:59:42.697Z,1.80
2022-11-19T07:02:15.897Z,1.80
2022-11-19T07:04:44.905Z,1.80
2022-11-19T07:07:11.959Z,1.80
2022-11-19T07:09:39.919Z,1.80
2022-11-19T07:12:07.860Z,1.80
2022-11-19T07:14:34.728Z,1.70
2022-11-19T07:17:01.756Z,1.70
2022-11-19T07:19:28.640Z,1.70
2022-11-19T07:21:55.875Z,1.70
2022-11-19T07:24:23.142Z,1.70
2022-11-19T07:26:50.269Z,1.70
2022-11-19T07:29:17.600Z,1.70
2022-11-19T07:31:46.956Z,1.70
2022-11-19T07:34:13.860Z,1.70
2022-11-19T07:36:40.726Z,1.70
2022-11-19T07:39:08.147Z,1.70
2022-11-19T07:41:53.390Z,1.70
2022-11-19T07:44:20.187Z,1.60
2022-11-19T07:46:47.548Z,1.60
2022-11-19T07:49:14.830Z,1.60
2022-11-19T07:51:42.002Z,1.60
2022-11-19T07:54:11.659Z,1.60
2022-11-19T07:56:38.499Z,1.70
2022-11-19T07:59:05.514Z,1.70
2022-11-19T08:01:32.792Z,1.70
2022-11-19T08:04:00.080Z,1.70
2022-11-19T08:06:28.240Z,1.70
2022-11-19T08:08:56.464Z,1.80
2022-11-19T08:11:23.825Z,1.80
2022-11-19T08:13:51.007Z,1.70
2022-11-19T08:16:37.973Z,1.70
2022-11-19T08:19:10.218Z,1.70
2022-11-19T08:21:41.006Z,1.60
2022-11-19T08:24:12.123Z,1.60
2022-11-19T08:26:39.086Z,1.60
2022-11-19T08:29:08.522Z,1.60
2022-11-19T08:31:39.628Z,1.60
2022-11-19T08:34:10.600Z,1.50
2022-11-19T08:36:37.376Z,1.60
2022-11-19T08:39:04.316Z,1.50
2022-11-19T08:41:49.606Z,1.50
2022-11-19T08:44:17.816Z,1.50
2022-11-19T08:46:45.003Z,1.60
2022-11-19T08:49:12.390Z,1.60
2022-11-19T08:51:39.379Z,1.70
2022-11-19T08:54:06.665Z,1.70
2022-11-19T08:56:33.671Z,1.90
2022-11-19T08:59:03.528Z,1.90
2022-11-19T09:01:31.057Z,2.10
2022-11-19T09:03:58.057Z,2.10
2022-11-19T09:06:24.915Z,2.30
2022-11-19T09:08:52.332Z,2.40
2022-11-19T09:11:22.924Z,2.40
2022-11-19T09:13:49.740Z,2.40
2022-11-19T09:16:16.841Z,2.40
2022-11-19T09:18:46.609Z,2.40
2022-11-19T09:21:13.424Z,2.30
2022-11-19T09:23:43.998Z,2.30
2022-11-19T09:26:18.617Z,2.60
2022-11-19T09:28:46.160Z,3.70
2022-11-19T09:31:19.147Z,5.10
2022-11-19T09:33:51.920Z,6.40
2022-11-19T09:36:19.627Z,7.40
2022-11-19T09:38:49.862Z,8.00
2022-11-19T09:41:35.610Z,8.10
2022-11-19T09:44:37.402Z,7.50
2022-11-19T09:47:12.229Z,7.50
2022-11-19T09:49:43.688Z,7.10
2022-11-19T09:52:13.465Z,6.80
2022-11-19T09:54:46.463Z,6.60
2022-11-19T09:57:20.712Z,6.20
2022-11-19T09:59:49.704Z,5.90
2022-11-19T10:02:21.949Z,5.80
2022-11-19T10:04:51.226Z,6.10
2022-11-19T10:07:33.119Z,6.30
2022-11-19T10:10:34.219Z,6.30
2022-11-19T10:13:23.497Z,6.30
2022-11-19T10:16:08.245Z,6.00
2022-11-19T10:18:58.102Z,6.00
2022-11-19T10:21:33.724Z,6.20
2022-11-19T10:24:18.030Z,6.10
2022-11-19T10:27:02.007Z,6.20
2022-11-19T10:29:37.071Z,6.40
2022-11-19T10:32:22.887Z,6.80
2022-11-19T10:34:54.106Z,6.80
2022-11-19T10:37:23.659Z,6.50
2022-11-19T10:39:57.382Z,6.50
2022-11-19T10:42:37.655Z,6.70
2022-11-19T10:45:25.364Z,7.30
2022-11-19T10:48:09.565Z,7.70
2022-11-19T10:50:37.227Z,8.20
2022-11-19T10:53:25.108Z,8.30
2022-11-19T10:56:14.046Z,8.00
2022-11-19T10:59:09.875Z,7.40
2022-11-19T11:01:40.668Z,7.70
2022-11-19T11:04:13.876Z,8.40
2022-11-19T11:06:55.719Z,9.10
2022-11-19T11:09:42.782Z,9.70
2022-11-19T11:12:38.218Z,9.60
2022-11-19T11:15:25.855Z,9.70
2022-11-19T11:18:10.575Z,10.30
2022-11-19T11:20:40.174Z,11.30
2022-11-19T11:23:11.564Z,12.00
2022-11-19T11:25:39.602Z,12.40
2022-11-19T11:28:18.592Z,12.50
2022-11-19T11:30:55.580Z,11.80
2022-11-19T11:33:41.121Z,11.40
2022-11-19T11:36:10.994Z,11.10
2022-11-19T11:38:44.361Z,10.80
2022-11-19T11:42:03.424Z,10.50
2022-11-19T11:44:15.069Z,10.10
2022-11-19T11:46:49.067Z,9.60
2022-11-19T11:49:35.304Z,9.00
2022-11-19T11:52:22.654Z,8.60
2022-11-19T11:54:56.513Z,8.90
2022-11-19T11:57:37.504Z,9.20
2022-11-19T12:00:37.812Z,9.20
2022-11-19T12:03:10.963Z,8.80
2022-11-19T12:06:09.766Z,8.80
2022-11-19T12:08:58.730Z,8.60
2022-11-19T12:12:04.510Z,8.30
2022-11-19T12:14:55.707Z,8.00
2022-11-19T12:17:29.390Z,7.50
2022-11-19T12:20:23.226Z,7.00
2022-11-19T12:23:33.377Z,6.70
2022-11-19T12:26:12.703Z,6.90
2022-11-19T12:28:56.779Z,6.70
2022-11-19T12:32:10.372Z,6.30
2022-11-19T12:34:51.464Z,6.00
2022-11-19T12:37:37.092Z,5.80
2022-11-19T12:40:45.021Z,5.60
2022-11-19T12:43:49.379Z,5.50
2022-11-19T12:46:46.436Z,5.30
2022-11-19T12:49:47.413Z,5.20
2022-11-19T12:52:32.921Z,5.20
2022-11-19T12:55:26.818Z,5.10
2022-11-19T12:58:25.682Z,5.00
2022-11-19T13:01:06.192Z,5.00
2022-11-19T13:04:13.804Z,5.00
2022-11-19T13:06:49.626Z,5.10
2022-11-19T13:09:28.929Z,5.10
2022-11-19T13:12:07.368Z,5.00
2022-11-19T13:14:44.529Z,5.00
2022-11-19T13:17:27.419Z,4.90
2022-11-19T13:19:57.558Z,5.00
2022-11-19T13:22:31.425Z,5.40
2022-11-19T13:25:01.098Z,5.70
2022-11-19T13:27:30.466Z,5.50
2022-11-19T13:30:02.815Z,5.30
2022-11-19T13:32:39.060Z,5.20
2022-11-19T13:35:35.423Z,5.20
2022-11-19T13:38:23.690Z,5.20
2022-11-19T13:41:19.563Z,5.30
2022-11-19T13:44:05.444Z,5.30
2022-11-19T13:46:40.715Z,5.30
2022-11-19T13:49:28.436Z,5.60
2022-11-19T13:52:04.498Z,5.80
2022-11-19T13:54:35.249Z,6.00
2022-11-19T13:57:03.583Z,5.80
2022-11-19T13:59:43.500Z,5.50
2022-11-19T14:02:34.941Z,5.30
2022-11-19T14:05:33.907Z,5.80
2022-11-19T14:08:21.152Z,6.70
2022-11-19T14:11:22.779Z,7.40
2022-11-19T14:14:06.819Z,7.50
2022-11-19T14:17:05.694Z,7.30
2022-11-19T14:20:10.441Z,7.00
2022-11-19T14:23:16.299Z,7.00
2022-11-19T14:26:07.484Z,7.00
2022-11-19T14:28:47.856Z,6.70
2022-11-19T14:31:16.175Z,6.70
2022-11-19T14:33:48.834Z,6.90
2022-11-19T14:36:36.306Z,6.80
2022-11-19T14:39:09.019Z,6.60
2022-11-19T14:41:35.951Z,6.50
2022-11-19T14:44:10.634Z,6.30
2022-11-19T14:46:47.850Z,6.10
2022-11-19T14:49:34.544Z,5.70
2022-11-19T14:52:02.849Z,5.40
2022-11-19T14:54:45.030Z,5.20
2022-11-19T14:57:25.648Z,4.90
2022-11-19T14:59:59.848Z,4.70
2022-11-19T15:02:31.224Z,4.60
2022-11-19T15:05:25.544Z,4.40
2022-11-19T15:08:18.130Z,4.20
2022-11-19T15:11:01.889Z,4.00
2022-11-19T15:13:49.375Z,3.80
2022-11-19T15:16:25.079Z,3.70
2022-11-19T15:19:04.057Z,3.60
2022-11-19T15:21:35.455Z,3.50
2022-11-19T15:24:11.485Z,3.30
2022-11-19T15:26:56.245Z,3.20
2022-11-19T15:29:44.967Z,3.10
2022-11-19T15:35:18.857Z,2.90
2022-11-19T15:37:45.530Z,2.90
2022-11-19T15:43:31.143Z,2.70
2022-11-19T15:46:04.994Z,2.60
2022-11-19T15:49:00.098Z,2.50
2022-11-19T15:51:27.226Z,2.40
2022-11-19T15:54:06.335Z,2.30
2022-11-19T15:56:37.446Z,2.20
2022-11-19T15:59:06.649Z,2.20
2022-11-19T16:01:34.508Z,2.10
2022-11-19T16:04:14.971Z,2.00
2022-11-19T16:06:56.260Z,2.00
2022-11-19T16:09:25.079Z,1.90
2022-11-19T16:12:15.802Z,1.80
2022-11-19T16:15:08.654Z,1.70
2022-11-19T16:17:44.034Z,1.60
2022-11-19T16:20:11.201Z,1.50
2022-11-19T16:22:44.986Z,1.50
2022-11-19T16:25:18.896Z,1.40
2022-11-19T16:27:46.352Z,1.30
2022-11-19T16:30:27.612Z,1.30
2022-11-19T16:33:01.752Z,1.20
2022-11-19T16:35:32.814Z,1.10
2022-11-19T16:38:01.424Z,1.10
2022-11-19T16:40:49.249Z,1.00
2022-11-19T16:43:16.770Z,1.00
2022-11-19T16:45:49.330Z,0.90
2022-11-19T16:48:34.879Z,0.80
2022-11-19T16:51:27.226Z,0.80
2022-11-19T16:53:53.989Z,0.70
2022-11-19T16:56:22.243Z,0.70
2022-11-19T16:58:49.713Z,0.60
2022-11-19T17:01:19.178Z,0.50
2022-11-19T17:03:46.018Z,0.40
2022-11-19T17:09:04.482Z,0.40
2022-11-19T17:12:08.470Z,0.40
2022-11-19T17:14:35.210Z,0.30
2022-11-19T17:17:39.476Z,0.30
2022-11-19T17:20:29.495Z,0.30
2022-11-19T17:23:00.666Z,0.20
2022-11-19T17:25:29.019Z,0.20
2022-11-19T17:27:58.629Z,0.10
2022-11-19T17:30:30.877Z,0.10
2022-11-19T17:33:00.958Z,0.10
2022-11-19T17:35:42.499Z,0.00
2022-11-19T17:38:23.859Z,0.00
2022-11-19T17:40:54.243Z,0.00
2022-11-19T17:43:43.381Z,-0.10
2022-11-19T17:46:10.618Z,-0.10
2022-11-19T17:48:41.118Z,-0.10
2022-11-19T17:51:14.908Z,-0.20
2022-11-19T17:53:42.141Z,-0.20
2022-11-19T17:56:20.894Z,-0.30
2022-11-19T17:58:47.874Z,-0.20
2022-11-19T18:01:15.615Z,-0.30
2022-11-19T18:03:42.748Z,-0.30
2022-11-19T18:06:12.710Z,-0.40
2022-11-19T18:08:41.951Z,-0.40
2022-11-19T18:11:15.737Z,-0.40
2022-11-19T18:13:45.420Z,-0.40
2022-11-19T18:16:18.657Z,-0.50
2022-11-19T18:18:51.421Z,-0.50
2022-11-19T18:21:20.606Z,-0.60
2022-11-19T18:23:50.240Z,-0.60
2022-11-19T18:26:26.009Z,-0.60
2022-11-19T18:28:55.135Z,-0.60
2022-11-19T18:31:24.324Z,-0.70
2022-11-19T18:33:51.209Z,-0.70
2022-11-19T18:36:21.400Z,-0.70
2022-11-19T18:38:48.331Z,-0.80
2022-11-19T18:41:18.928Z,-0.80
2022-11-19T18:44:04.418Z,-0.80
2022-11-19T18:46:31.205Z,-0.80
2022-11-19T18:48:58.143Z,-0.80
2022-11-19T18:51:27.311Z,-0.90
2022-11-19T18:53:54.249Z,-0.90
2022-11-19T18:56:22.089Z,-0.90
2022-11-19T18:58:50.084Z,-1.00
2022-11-19T19:01:17.293Z,-1.00
2022-11-19T19:03:44.631Z,-1.00
2022-11-19T19:06:12.105Z,-1.00
2022-11-19T19:08:40.102Z,-1.10
2022-11-19T19:11:26.682Z,-1.10
2022-11-19T19:13:54.544Z,-1.10
2022-11-19T19:16:22.079Z,-1.20
2022-11-19T19:18:50.495Z,-1.20
2022-11-19T19:21:22.960Z,-1.20
2022-11-19T19:23:50.727Z,-1.20
2022-11-19T19:26:18.968Z,-1.30
2022-11-19T19:28:53.992Z,-1.30
2022-11-19T19:31:22.051Z,-1.30
2022-11-19T19:33:49.466Z,-1.30
2022-11-19T19:36:17.856Z,-1.30
2022-11-19T19:38:45.341Z,-1.40
2022-11-19T19:41:19.501Z,-1.40
2022-11-19T19:43:47.659Z,-1.50
2022-11-19T19:46:17.280Z,-1.50
2022-11-19T19:48:49.626Z,-1.60
2022-11-19T19:51:20.637Z,-1.60
2022-11-19T19:53:48.413Z,-1.70
2022-11-19T19:56:20.961Z,-1.70
2022-11-19T19:58:49.339Z,-1.70
2022-11-19T20:01:36.818Z,-1.70
2022-11-19T20:04:06.511Z,-1.80
2022-11-19T20:06:38.058Z,-1.80
2022-11-19T20:09:08.814Z,-1.80
2022-11-19T20:11:48.857Z,-1.80
2022-11-19T20:14:15.645Z,-1.80
2022-11-19T20:16:43.006Z,-1.90
2022-11-19T20:19:14.037Z,-1.90
2022-11-19T20:21:41.089Z,-1.90
2022-11-19T20:24:12.677Z,-1.80
2022-11-19T20:26:41.209Z,-1.90
2022-11-19T20:29:12.470Z,-1.90
2022-11-19T20:31:39.857Z,-1.90
2022-11-19T20:34:08.000Z,-1.90
2022-11-19T20:36:38.120Z,-2.00
2022-11-19T20:39:06.799Z,-1.90
2022-11-19T20:41:54.807Z,-1.90
2022-11-19T20:44:22.145Z,-1.90
2022-11-19T20:46:55.821Z,-1.90
2022-11-19T20:49:26.248Z,-1.90
2022-11-19T20:51:54.423Z,-2.00
2022-11-19T20:54:46.271Z,-2.00
2022-11-19T20:57:14.967Z,-2.00
2022-11-19T20:59:56.440Z,-2.10
2022-11-19T21:02:24.327Z,-2.10
2022-11-19T21:04:51.149Z,-2.20
2022-11-19T21:07:21.005Z,-2.20
2022-11-19T21:09:48.875Z,-2.20
2022-11-19T21:12:25.916Z,-2.20
2022-11-19T21:14:52.751Z,-2.20
2022-11-19T21:17:19.557Z,-2.30
2022-11-19T21:19:46.729Z,-2.30
2022-11-19T21:22:13.586Z,-2.30
2022-11-19T21:24:40.408Z,-2.30
2022-11-19T21:27:07.311Z,-2.30
2022-11-19T21:29:35.759Z,-2.40
2022-11-19T21:32:02.602Z,-2.40
2022-11-19T21:34:37.718Z,-2.40
2022-11-19T21:37:05.939Z,-2.50
2022-11-19T21:39:32.705Z,-2.50
2022-11-19T21:41:59.447Z,-2.50
2022-11-19T21:44:26.377Z,-2.50
2022-11-19T21:46:53.202Z,-2.50
2022-11-19T21:49:20.678Z,-2.50
2022-11-19T21:51:47.948Z,-2.50
2022-11-19T21:54:14.856Z,-2.50
2022-11-19T21:56:41.765Z,-2.50
2022-11-19T21:59:08.707Z,-2.50
2022-11-19T22:01:35.859Z,-2.50
2022-11-19T22:04:03.051Z,-2.50
2022-11-19T22:06:31.926Z,-2.60
2022-11-19T22:08:58.970Z,-2.60
2022-11-19T22:11:28.597Z,-2.60
2022-11-19T22:13:57.269Z,-2.60
2022-11-19T22:16:24.188Z,-2.60
2022-11-19T22:18:51.337Z,-2.70
2022-11-19T22:21:18.172Z,-2.70
2022-11-19T22:23:44.985Z,-2.70
2022-11-19T22:26:12.492Z,-2.70
2022-11-19T22:28:43.163Z,-2.70
2022-11-19T22:31:17.673Z,-2.80
2022-11-19T22:33:51.922Z,-2.80
2022-11-19T22:36:23.071Z,-2.80
2022-11-19T22:38:51.464Z,-2.80
2022-11-19T22:41:20.102Z,-2.90
2022-11-19T22:43:47.189Z,-2.90
2022-11-19T22:46:14.663Z,-2.90
2022-11-19T22:48:41.645Z,-3.00
2022-11-19T22:51:14.397Z,-3.00
2022-11-19T22:53:41.727Z,-3.00
2022-11-19T22:56:10.681Z,-3.00
2022-11-19T22:58:38.629Z,-3.10
2022-11-19T23:01:07.517Z,-3.10
2022-11-19T23:03:34.417Z,-3.10
2022-11-19T23:06:01.226Z,-3.10
2022-11-19T23:08:27.988Z,-3.10
2022-11-19T23:11:03.284Z,-3.20
2022-11-19T23:13:32.883Z,-3.20
2022-11-19T23:16:01.025Z,-3.20
2022-11-19T23:18:29.065Z,-3.30
2022-11-19T23:20:58.084Z,-3.30
2022-11-19T23:23:24.952Z,-3.30
2022-11-19T23:25:59.201Z,-3.40
2022-11-19T23:28:27.383Z,-3.40
2022-11-19T23:30:54.538Z,-3.40
2022-11-19T23:33:22.500Z,-3.50
2022-11-19T23:35:49.265Z,-3.40
2022-11-19T23:38:16.189Z,-3.40
2022-11-19T23:40:42.953Z,-3.40
2022-11-19T23:43:09.702Z,-3.40
2022-11-19T23:45:36.858Z,-3.40
2022-11-19T23:48:03.951Z,-3.50
2022-11-19T23:50:30.741Z,-3.50
2022-11-19T23:52:57.506Z,-3.50
2022-11-19T23:55:24.262Z,-3.50
2022-11-19T23:57:51.061Z,-3.50
